sensor_id;sensor_type;location;lat;lon;timestamp;P1;durP1;ratioP1;P2;durP2;ratioP2
16660;SDS011;8444;52.012;5.048;2023-07-13T00:02:23;9.43;;;2.35;;
16660;SDS011;8444;52.012;5.048;2023-07-13T00:04:48;7.63;;;2.20;;
16660;SDS011;8444;52.012;5.048;2023-07-13T00:07:13;9.27;;;2.20;;
16660;SDS011;8444;52.012;5.048;2023-07-13T00:09:40;5.90;;;1.30;;
16660;SDS011;8444;52.012;5.048;2023-07-13T00:12:05;8.85;;;2.08;;
16660;SDS011;8444;52.012;5.048;2023-07-13T00:14:46;11.05;;;2.28;;
16660;SDS011;8444;52.012;5.048;2023-07-13T00:17:11;8.52;;;2.25;;
16660;SDS011;8444;52.012;5.048;2023-07-13T00:19:38;8.05;;;1.70;;
16660;SDS011;8444;52.012;5.048;2023-07-13T00:22:03;9.30;;;2.75;;
16660;SDS011;8444;52.012;5.048;2023-07-13T00:24:28;6.30;;;1.60;;
16660;SDS011;8444;52.012;5.048;2023-07-13T00:26:54;3.90;;;1.52;;
16660;SDS011;8444;52.012;5.048;2023-07-13T00:29:19;6.38;;;1.77;;
16660;SDS011;8444;52.012;5.048;2023-07-13T00:31:46;6.93;;;2.75;;
16660;SDS011;8444;52.012;5.048;2023-07-13T00:34:11;8.68;;;2.20;;
16660;SDS011;8444;52.012;5.048;2023-07-13T00:36:36;4.15;;;1.70;;
16660;SDS011;8444;52.012;5.048;2023-07-13T00:39:02;4.60;;;1.67;;
16660;SDS011;8444;52.012;5.048;2023-07-13T00:41:28;4.97;;;2.00;;
16660;SDS011;8444;52.012;5.048;2023-07-13T00:43:54;5.00;;;1.80;;
16660;SDS011;8444;52.012;5.048;2023-07-13T00:46:21;9.70;;;1.88;;
16660;SDS011;8444;52.012;5.048;2023-07-13T00:48:47;8.85;;;2.08;;
16660;SDS011;8444;52.012;5.048;2023-07-13T00:51:13;9.23;;;2.35;;
16660;SDS011;8444;52.012;5.048;2023-07-13T00:53:38;4.97;;;2.00;;
16660;SDS011;8444;52.012;5.048;2023-07-13T00:56:04;7.95;;;2.00;;
16660;SDS011;8444;52.012;5.048;2023-07-13T00:58:30;3.60;;;1.95;;
16660;SDS011;8444;52.012;5.048;2023-07-13T01:00:55;4.97;;;1.77;;
16660;SDS011;8444;52.012;5.048;2023-07-13T01:03:20;9.75;;;2.17;;
16660;SDS011;8444;52.012;5.048;2023-07-13T01:05:47;6.63;;;1.83;;
16660;SDS011;8444;52.012;5.048;2023-07-13T01:08:13;6.65;;;2.00;;
16660;SDS011;8444;52.012;5.048;2023-07-13T01:10:38;7.22;;;3.15;;
16660;SDS011;8444;52.012;5.048;2023-07-13T01:13:07;10.20;;;2.85;;
16660;SDS011;8444;52.012;5.048;2023-07-13T01:15:37;8.52;;;2.15;;
16660;SDS011;8444;52.012;5.048;2023-07-13T01:18:03;13.63;;;2.47;;
16660;SDS011;8444;52.012;5.048;2023-07-13T01:20:29;8.15;;;2.55;;
16660;SDS011;8444;52.012;5.048;2023-07-13T01:22:54;4.50;;;1.83;;
16660;SDS011;8444;52.012;5.048;2023-07-13T01:25:20;8.57;;;2.42;;
16660;SDS011;8444;52.012;5.048;2023-07-13T01:27:46;11.65;;;2.50;;
16660;SDS011;8444;52.012;5.048;2023-07-13T01:30:11;9.35;;;2.58;;
16660;SDS011;8444;52.012;5.048;2023-07-13T01:32:36;5.95;;;1.80;;
16660;SDS011;8444;52.012;5.048;2023-07-13T01:35:02;5.95;;;1.92;;
16660;SDS011;8444;52.012;5.048;2023-07-13T01:37:28;5.13;;;1.85;;
16660;SDS011;8444;52.012;5.048;2023-07-13T01:39:58;11.63;;;2.30;;
16660;SDS011;8444;52.012;5.048;2023-07-13T01:42:23;3.45;;;1.95;;
16660;SDS011;8444;52.012;5.048;2023-07-13T01:44:48;6.93;;;2.17;;
16660;SDS011;8444;52.012;5.048;2023-07-13T01:47:13;9.27;;;2.90;;
16660;SDS011;8444;52.012;5.048;2023-07-13T01:49:39;7.28;;;2.63;;
16660;SDS011;8444;52.012;5.048;2023-07-13T01:52:04;16.83;;;3.13;;
16660;SDS011;8444;52.012;5.048;2023-07-13T01:54:29;6.20;;;2.72;;
16660;SDS011;8444;52.012;5.048;2023-07-13T01:56:55;6.15;;;3.00;;
16660;SDS011;8444;52.012;5.048;2023-07-13T01:59:20;7.75;;;3.05;;
16660;SDS011;8444;52.012;5.048;2023-07-13T02:01:45;14.18;;;2.70;;
16660;SDS011;8444;52.012;5.048;2023-07-13T02:04:10;12.15;;;2.60;;
16660;SDS011;8444;52.012;5.048;2023-07-13T02:06:36;8.00;;;2.72;;
16660;SDS011;8444;52.012;5.048;2023-07-13T02:09:01;9.75;;;3.28;;
16660;SDS011;8444;52.012;5.048;2023-07-13T02:11:26;8.32;;;3.33;;
16660;SDS011;8444;52.012;5.048;2023-07-13T02:13:57;5.72;;;2.58;;
16660;SDS011;8444;52.012;5.048;2023-07-13T02:16:23;6.78;;;2.50;;
16660;SDS011;8444;52.012;5.048;2023-07-13T02:18:48;8.90;;;3.00;;
16660;SDS011;8444;52.012;5.048;2023-07-13T02:21:16;8.77;;;2.50;;
16660;SDS011;8444;52.012;5.048;2023-07-13T02:23:41;9.43;;;2.92;;
16660;SDS011;8444;52.012;5.048;2023-07-13T02:26:06;5.50;;;2.47;;
16660;SDS011;8444;52.012;5.048;2023-07-13T02:28:31;7.78;;;2.33;;
16660;SDS011;8444;52.012;5.048;2023-07-13T02:31:03;9.50;;;3.05;;
16660;SDS011;8444;52.012;5.048;2023-07-13T02:33:29;8.07;;;2.92;;
16660;SDS011;8444;52.012;5.048;2023-07-13T02:35:54;13.82;;;3.17;;
16660;SDS011;8444;52.012;5.048;2023-07-13T02:38:20;10.73;;;2.92;;
16660;SDS011;8444;52.012;5.048;2023-07-13T02:40:46;8.32;;;2.58;;
16660;SDS011;8444;52.012;5.048;2023-07-13T02:43:12;7.00;;;3.33;;
16660;SDS011;8444;52.012;5.048;2023-07-13T02:45:37;5.43;;;2.70;;
16660;SDS011;8444;52.012;5.048;2023-07-13T02:48:02;8.73;;;3.75;;
16660;SDS011;8444;52.012;5.048;2023-07-13T02:50:28;7.85;;;2.65;;
16660;SDS011;8444;52.012;5.048;2023-07-13T02:52:53;14.95;;;4.40;;
16660;SDS011;8444;52.012;5.048;2023-07-13T02:55:18;9.02;;;3.42;;
16660;SDS011;8444;52.012;5.048;2023-07-13T02:57:43;10.35;;;2.67;;
16660;SDS011;8444;52.012;5.048;2023-07-13T03:00:09;13.48;;;3.42;;
16660;SDS011;8444;52.012;5.048;2023-07-13T03:02:34;9.25;;;3.58;;
16660;SDS011;8444;52.012;5.048;2023-07-13T03:05:00;6.68;;;3.22;;
16660;SDS011;8444;52.012;5.048;2023-07-13T03:07:25;9.88;;;3.15;;
16660;SDS011;8444;52.012;5.048;2023-07-13T03:09:55;13.52;;;3.65;;
16660;SDS011;8444;52.012;5.048;2023-07-13T03:12:21;9.10;;;2.72;;
16660;SDS011;8444;52.012;5.048;2023-07-13T03:14:46;9.93;;;3.20;;
16660;SDS011;8444;52.012;5.048;2023-07-13T03:17:11;10.80;;;3.25;;
16660;SDS011;8444;52.012;5.048;2023-07-13T03:19:37;10.82;;;3.38;;
16660;SDS011;8444;52.012;5.048;2023-07-13T03:22:02;18.20;;;4.15;;
16660;SDS011;8444;52.012;5.048;2023-07-13T03:24:28;11.90;;;3.97;;
16660;SDS011;8444;52.012;5.048;2023-07-13T03:26:53;7.25;;;3.20;;
16660;SDS011;8444;52.012;5.048;2023-07-13T03:29:18;12.93;;;3.65;;
16660;SDS011;8444;52.012;5.048;2023-07-13T03:31:43;16.02;;;3.40;;
16660;SDS011;8444;52.012;5.048;2023-07-13T03:34:09;7.00;;;3.63;;
16660;SDS011;8444;52.012;5.048;2023-07-13T03:36:34;11.43;;;4.35;;
16660;SDS011;8444;52.012;5.048;2023-07-13T03:39:00;15.77;;;4.28;;
16660;SDS011;8444;52.012;5.048;2023-07-13T03:41:26;18.92;;;5.05;;
16660;SDS011;8444;52.012;5.048;2023-07-13T03:43:52;10.15;;;4.03;;
16660;SDS011;8444;52.012;5.048;2023-07-13T03:46:17;10.18;;;3.78;;
16660;SDS011;8444;52.012;5.048;2023-07-13T03:48:43;15.07;;;4.30;;
16660;SDS011;8444;52.012;5.048;2023-07-13T03:51:10;15.02;;;4.45;;
16660;SDS011;8444;52.012;5.048;2023-07-13T03:53:39;11.88;;;4.03;;
16660;SDS011;8444;52.012;5.048;2023-07-13T03:56:05;19.60;;;5.38;;
16660;SDS011;8444;52.012;5.048;2023-07-13T03:58:35;16.48;;;4.32;;
16660;SDS011;8444;52.012;5.048;2023-07-13T04:01:02;15.05;;;4.45;;
16660;SDS011;8444;52.012;5.048;2023-07-13T04:03:28;13.70;;;4.40;;
16660;SDS011;8444;52.012;5.048;2023-07-13T04:05:56;15.00;;;4.50;;
16660;SDS011;8444;52.012;5.048;2023-07-13T04:08:28;15.30;;;4.82;;
16660;SDS011;8444;52.012;5.048;2023-07-13T04:10:54;17.88;;;5.68;;
16660;SDS011;8444;52.012;5.048;2023-07-13T04:13:19;10.68;;;5.50;;
16660;SDS011;8444;52.012;5.048;2023-07-13T04:15:44;14.30;;;5.35;;
16660;SDS011;8444;52.012;5.048;2023-07-13T04:18:10;15.32;;;5.78;;
16660;SDS011;8444;52.012;5.048;2023-07-13T04:20:35;17.98;;;5.10;;
16660;SDS011;8444;52.012;5.048;2023-07-13T04:23:00;16.20;;;5.78;;
16660;SDS011;8444;52.012;5.048;2023-07-13T04:25:26;15.40;;;4.82;;
16660;SDS011;8444;52.012;5.048;2023-07-13T04:27:52;12.45;;;5.07;;
16660;SDS011;8444;52.012;5.048;2023-07-13T04:30:17;16.88;;;4.82;;
16660;SDS011;8444;52.012;5.048;2023-07-13T04:32:42;21.08;;;5.43;;
16660;SDS011;8444;52.012;5.048;2023-07-13T04:35:08;18.60;;;5.22;;
16660;SDS011;8444;52.012;5.048;2023-07-13T04:37:33;8.23;;;4.18;;
16660;SDS011;8444;52.012;5.048;2023-07-13T04:40:00;16.67;;;4.53;;
16660;SDS011;8444;52.012;5.048;2023-07-13T04:42:25;11.70;;;4.85;;
16660;SDS011;8444;52.012;5.048;2023-07-13T04:44:51;16.38;;;4.97;;
16660;SDS011;8444;52.012;5.048;2023-07-13T04:47:16;15.38;;;4.75;;
16660;SDS011;8444;52.012;5.048;2023-07-13T04:49:42;9.90;;;4.18;;
16660;SDS011;8444;52.012;5.048;2023-07-13T04:52:07;15.93;;;5.03;;
16660;SDS011;8444;52.012;5.048;2023-07-13T04:54:33;11.52;;;3.60;;
16660;SDS011;8444;52.012;5.048;2023-07-13T04:56:58;15.52;;;3.90;;
16660;SDS011;8444;52.012;5.048;2023-07-13T04:59:23;15.38;;;5.13;;
16660;SDS011;8444;52.012;5.048;2023-07-13T05:01:48;18.58;;;4.97;;
16660;SDS011;8444;52.012;5.048;2023-07-13T05:04:14;10.70;;;4.15;;
16660;SDS011;8444;52.012;5.048;2023-07-13T05:06:39;12.65;;;4.35;;
16660;SDS011;8444;52.012;5.048;2023-07-13T05:09:05;18.27;;;4.47;;
16660;SDS011;8444;52.012;5.048;2023-07-13T05:11:31;15.88;;;5.18;;
16660;SDS011;8444;52.012;5.048;2023-07-13T05:13:56;13.65;;;4.68;;
16660;SDS011;8444;52.012;5.048;2023-07-13T05:16:21;12.50;;;4.03;;
16660;SDS011;8444;52.012;5.048;2023-07-13T05:18:46;15.35;;;3.88;;
16660;SDS011;8444;52.012;5.048;2023-07-13T05:21:12;13.10;;;4.38;;
16660;SDS011;8444;52.012;5.048;2023-07-13T05:23:37;13.48;;;4.50;;
16660;SDS011;8444;52.012;5.048;2023-07-13T05:26:03;13.40;;;4.75;;
16660;SDS011;8444;52.012;5.048;2023-07-13T05:28:29;19.80;;;5.50;;
16660;SDS011;8444;52.012;5.048;2023-07-13T05:30:54;9.90;;;4.93;;
16660;SDS011;8444;52.012;5.048;2023-07-13T05:33:20;14.85;;;4.95;;
16660;SDS011;8444;52.012;5.048;2023-07-13T05:35:45;11.60;;;4.88;;
16660;SDS011;8444;52.012;5.048;2023-07-13T05:38:11;10.85;;;4.90;;
16660;SDS011;8444;52.012;5.048;2023-07-13T05:40:36;10.23;;;5.03;;
16660;SDS011;8444;52.012;5.048;2023-07-13T05:43:02;12.07;;;4.60;;
16660;SDS011;8444;52.012;5.048;2023-07-13T05:45:27;15.82;;;5.07;;
16660;SDS011;8444;52.012;5.048;2023-07-13T05:47:53;15.52;;;4.90;;
16660;SDS011;8444;52.012;5.048;2023-07-13T05:50:18;11.30;;;4.95;;
16660;SDS011;8444;52.012;5.048;2023-07-13T05:52:43;15.18;;;5.00;;
16660;SDS011;8444;52.012;5.048;2023-07-13T05:55:09;11.00;;;5.40;;
16660;SDS011;8444;52.012;5.048;2023-07-13T05:57:34;15.48;;;5.93;;
16660;SDS011;8444;52.012;5.048;2023-07-13T05:59:59;14.00;;;5.22;;
16660;SDS011;8444;52.012;5.048;2023-07-13T06:02:25;17.52;;;6.05;;
16660;SDS011;8444;52.012;5.048;2023-07-13T06:04:51;15.32;;;5.00;;
16660;SDS011;8444;52.012;5.048;2023-07-13T06:07:16;24.98;;;7.03;;
16660;SDS011;8444;52.012;5.048;2023-07-13T06:09:42;15.95;;;5.80;;
16660;SDS011;8444;52.012;5.048;2023-07-13T06:12:07;13.07;;;6.00;;
16660;SDS011;8444;52.012;5.048;2023-07-13T06:14:32;17.63;;;6.60;;
16660;SDS011;8444;52.012;5.048;2023-07-13T06:16:58;14.57;;;6.40;;
16660;SDS011;8444;52.012;5.048;2023-07-13T06:19:23;16.77;;;6.20;;
16660;SDS011;8444;52.012;5.048;2023-07-13T06:24:16;16.15;;;5.80;;
16660;SDS011;8444;52.012;5.048;2023-07-13T06:26:42;15.80;;;6.53;;
16660;SDS011;8444;52.012;5.048;2023-07-13T06:29:07;11.20;;;6.05;;
16660;SDS011;8444;52.012;5.048;2023-07-13T06:31:32;13.35;;;5.82;;
16660;SDS011;8444;52.012;5.048;2023-07-13T06:33:57;15.18;;;5.28;;
16660;SDS011;8444;52.012;5.048;2023-07-13T06:36:23;11.77;;;6.75;;
16660;SDS011;8444;52.012;5.048;2023-07-13T06:38:48;10.65;;;5.90;;
16660;SDS011;8444;52.012;5.048;2023-07-13T06:41:13;11.43;;;5.63;;
16660;SDS011;8444;52.012;5.048;2023-07-13T06:43:39;18.92;;;5.95;;
16660;SDS011;8444;52.012;5.048;2023-07-13T06:46:04;10.63;;;5.20;;
16660;SDS011;8444;52.012;5.048;2023-07-13T06:48:29;15.02;;;6.55;;
16660;SDS011;8444;52.012;5.048;2023-07-13T06:50:54;21.23;;;6.47;;
16660;SDS011;8444;52.012;5.048;2023-07-13T06:53:21;15.77;;;6.22;;
16660;SDS011;8444;52.012;5.048;2023-07-13T06:55:47;13.70;;;6.03;;
16660;SDS011;8444;52.012;5.048;2023-07-13T06:58:14;11.38;;;5.88;;
16660;SDS011;8444;52.012;5.048;2023-07-13T07:00:39;16.42;;;6.72;;
16660;SDS011;8444;52.012;5.048;2023-07-13T07:03:05;17.02;;;6.90;;
16660;SDS011;8444;52.012;5.048;2023-07-13T07:05:30;15.23;;;6.25;;
16660;SDS011;8444;52.012;5.048;2023-07-13T07:07:55;16.85;;;6.70;;
16660;SDS011;8444;52.012;5.048;2023-07-13T07:10:21;16.13;;;6.88;;
16660;SDS011;8444;52.012;5.048;2023-07-13T07:12:46;15.68;;;6.47;;
16660;SDS011;8444;52.012;5.048;2023-07-13T07:15:12;17.63;;;7.75;;
16660;SDS011;8444;52.012;5.048;2023-07-13T07:17:37;17.02;;;7.18;;
16660;SDS011;8444;52.012;5.048;2023-07-13T07:20:03;20.48;;;8.02;;
16660;SDS011;8444;52.012;5.048;2023-07-13T07:22:29;12.43;;;7.15;;
16660;SDS011;8444;52.012;5.048;2023-07-13T07:24:55;11.50;;;7.30;;
16660;SDS011;8444;52.012;5.048;2023-07-13T07:27:20;15.82;;;7.70;;
16660;SDS011;8444;52.012;5.048;2023-07-13T07:29:46;16.85;;;7.93;;
16660;SDS011;8444;52.012;5.048;2023-07-13T07:32:11;19.05;;;7.50;;
16660;SDS011;8444;52.012;5.048;2023-07-13T07:34:36;16.83;;;7.07;;
16660;SDS011;8444;52.012;5.048;2023-07-13T07:37:02;11.88;;;7.13;;
16660;SDS011;8444;52.012;5.048;2023-07-13T07:39:28;14.32;;;6.88;;
16660;SDS011;8444;52.012;5.048;2023-07-13T07:41:53;17.52;;;6.80;;
16660;SDS011;8444;52.012;5.048;2023-07-13T07:44:19;12.63;;;6.63;;
16660;SDS011;8444;52.012;5.048;2023-07-13T07:46:44;14.65;;;6.38;;
16660;SDS011;8444;52.012;5.048;2023-07-13T07:49:09;15.32;;;6.70;;
16660;SDS011;8444;52.012;5.048;2023-07-13T07:51:35;14.27;;;5.40;;
16660;SDS011;8444;52.012;5.048;2023-07-13T07:54:01;12.82;;;6.15;;
16660;SDS011;8444;52.012;5.048;2023-07-13T07:56:26;11.35;;;5.20;;
16660;SDS011;8444;52.012;5.048;2023-07-13T07:58:51;11.63;;;5.00;;
16660;SDS011;8444;52.012;5.048;2023-07-13T08:01:17;9.23;;;5.32;;
16660;SDS011;8444;52.012;5.048;2023-07-13T08:03:42;17.20;;;4.47;;
16660;SDS011;8444;52.012;5.048;2023-07-13T08:06:07;6.47;;;3.78;;
16660;SDS011;8444;52.012;5.048;2023-07-13T08:08:33;8.63;;;2.47;;
16660;SDS011;8444;52.012;5.048;2023-07-13T08:11:01;3.78;;;1.98;;
16660;SDS011;8444;52.012;5.048;2023-07-13T08:13:27;4.55;;;2.50;;
16660;SDS011;8444;52.012;5.048;2023-07-13T08:15:52;4.00;;;2.20;;
16660;SDS011;8444;52.012;5.048;2023-07-13T08:18:17;4.55;;;2.03;;
16660;SDS011;8444;52.012;5.048;2023-07-13T08:20:42;3.47;;;2.30;;
16660;SDS011;8444;52.012;5.048;2023-07-13T08:23:08;4.57;;;2.47;;
16660;SDS011;8444;52.012;5.048;2023-07-13T08:25:34;4.32;;;2.90;;
16660;SDS011;8444;52.012;5.048;2023-07-13T08:28:00;6.68;;;2.38;;
16660;SDS011;8444;52.012;5.048;2023-07-13T08:30:25;4.47;;;2.10;;
16660;SDS011;8444;52.012;5.048;2023-07-13T08:32:51;6.15;;;3.35;;
16660;SDS011;8444;52.012;5.048;2023-07-13T08:35:18;4.70;;;2.40;;
16660;SDS011;8444;52.012;5.048;2023-07-13T08:37:43;4.38;;;2.08;;
16660;SDS011;8444;52.012;5.048;2023-07-13T08:40:09;3.75;;;1.70;;
16660;SDS011;8444;52.012;5.048;2023-07-13T08:45:14;5.35;;;2.05;;
16660;SDS011;8444;52.012;5.048;2023-07-13T08:47:44;2.15;;;1.83;;
16660;SDS011;8444;52.012;5.048;2023-07-13T08:50:14;6.00;;;2.70;;
16660;SDS011;8444;52.012;5.048;2023-07-13T08:52:40;7.80;;;2.45;;
16660;SDS011;8444;52.012;5.048;2023-07-13T08:55:18;6.95;;;2.45;;
16660;SDS011;8444;52.012;5.048;2023-07-13T08:57:47;7.20;;;3.13;;
16660;SDS011;8444;52.012;5.048;2023-07-13T09:00:13;5.65;;;2.80;;
16660;SDS011;8444;52.012;5.048;2023-07-13T09:02:52;5.10;;;2.55;;
16660;SDS011;8444;52.012;5.048;2023-07-13T09:15:50;4.38;;;1.80;;
16660;SDS011;8444;52.012;5.048;2023-07-13T09:18:19;7.43;;;2.78;;
16660;SDS011;8444;52.012;5.048;2023-07-13T09:20:49;6.28;;;1.75;;
16660;SDS011;8444;52.012;5.048;2023-07-13T09:23:17;3.75;;;1.90;;
16660;SDS011;8444;52.012;5.048;2023-07-13T09:25:43;5.30;;;2.17;;
16660;SDS011;8444;52.012;5.048;2023-07-13T09:28:20;4.13;;;2.08;;
16660;SDS011;8444;52.012;5.048;2023-07-13T09:31:00;4.85;;;1.83;;
16660;SDS011;8444;52.012;5.048;2023-07-13T09:33:25;6.68;;;2.30;;
16660;SDS011;8444;52.012;5.048;2023-07-13T09:35:54;6.07;;;2.28;;
16660;SDS011;8444;52.012;5.048;2023-07-13T09:38:19;4.20;;;1.50;;
16660;SDS011;8444;52.012;5.048;2023-07-13T09:40:59;3.45;;;1.80;;
16660;SDS011;8444;52.012;5.048;2023-07-13T09:43:26;2.85;;;1.52;;
16660;SDS011;8444;52.012;5.048;2023-07-13T09:45:53;6.43;;;2.00;;
16660;SDS011;8444;52.012;5.048;2023-07-13T09:48:19;8.10;;;2.60;;
16660;SDS011;8444;52.012;5.048;2023-07-13T09:50:45;3.05;;;2.08;;
16660;SDS011;8444;52.012;5.048;2023-07-13T09:53:14;4.35;;;2.00;;
16660;SDS011;8444;52.012;5.048;2023-07-13T09:55:41;3.28;;;2.25;;
16660;SDS011;8444;52.012;5.048;2023-07-13T09:58:14;4.25;;;2.08;;
16660;SDS011;8444;52.012;5.048;2023-07-13T10:00:39;4.25;;;1.50;;
16660;SDS011;8444;52.012;5.048;2023-07-13T10:05:43;6.22;;;1.80;;
16660;SDS011;8444;52.012;5.048;2023-07-13T10:08:16;5.38;;;1.80;;
16660;SDS011;8444;52.012;5.048;2023-07-13T10:10:43;3.05;;;1.63;;
16660;SDS011;8444;52.012;5.048;2023-07-13T10:15:53;2.33;;;1.70;;
16660;SDS011;8444;52.012;5.048;2023-07-13T10:18:19;2.92;;;1.88;;
16660;SDS011;8444;52.012;5.048;2023-07-13T10:20:45;7.15;;;1.75;;
16660;SDS011;8444;52.012;5.048;2023-07-13T10:23:13;2.75;;;1.52;;
16660;SDS011;8444;52.012;5.048;2023-07-13T10:25:41;3.90;;;1.67;;
16660;SDS011;8444;52.012;5.048;2023-07-13T10:30:53;5.25;;;2.13;;
16660;SDS011;8444;52.012;5.048;2023-07-13T10:33:20;2.85;;;1.92;;
16660;SDS011;8444;52.012;5.048;2023-07-13T10:35:46;5.20;;;1.92;;
16660;SDS011;8444;52.012;5.048;2023-07-13T10:38:18;5.63;;;2.55;;
16660;SDS011;8444;52.012;5.048;2023-07-13T10:40:48;4.38;;;2.45;;
16660;SDS011;8444;52.012;5.048;2023-07-13T10:43:23;4.90;;;2.53;;
16660;SDS011;8444;52.012;5.048;2023-07-13T10:45:51;5.75;;;2.15;;
16660;SDS011;8444;52.012;5.048;2023-07-13T10:48:19;7.32;;;2.17;;
16660;SDS011;8444;52.012;5.048;2023-07-13T10:50:46;6.07;;;3.00;;
16660;SDS011;8444;52.012;5.048;2023-07-13T10:53:29;5.85;;;3.10;;
16660;SDS011;8444;52.012;5.048;2023-07-13T10:55:59;5.63;;;2.75;;
16660;SDS011;8444;52.012;5.048;2023-07-13T11:01:06;4.05;;;2.30;;
16660;SDS011;8444;52.012;5.048;2023-07-13T11:03:32;3.05;;;1.95;;
16660;SDS011;8444;52.012;5.048;2023-07-13T11:08:53;4.47;;;2.30;;
16660;SDS011;8444;52.012;5.048;2023-07-13T11:21:15;4.20;;;1.90;;
16660;SDS011;8444;52.012;5.048;2023-07-13T11:23:42;3.25;;;2.15;;
16660;SDS011;8444;52.012;5.048;2023-07-13T11:26:37;4.88;;;2.00;;
16660;SDS011;8444;52.012;5.048;2023-07-13T11:28:52;3.70;;;1.92;;
16660;SDS011;8444;52.012;5.048;2023-07-13T11:31:17;4.22;;;1.75;;
16660;SDS011;8444;52.012;5.048;2023-07-13T11:33:51;2.92;;;1.70;;
16660;SDS011;8444;52.012;5.048;2023-07-13T11:36:23;3.35;;;1.70;;
16660;SDS011;8444;52.012;5.048;2023-07-13T11:38:59;5.10;;;2.20;;
16660;SDS011;8444;52.012;5.048;2023-07-13T11:41:59;4.57;;;1.70;;
16660;SDS011;8444;52.012;5.048;2023-07-13T11:44:21;2.80;;;1.75;;
16660;SDS011;8444;52.012;5.048;2023-07-13T11:46:48;3.42;;;1.80;;
16660;SDS011;8444;52.012;5.048;2023-07-13T11:49:17;4.10;;;1.98;;
16660;SDS011;8444;52.012;5.048;2023-07-13T11:51:43;3.90;;;1.73;;
16660;SDS011;8444;52.012;5.048;2023-07-13T11:54:28;2.08;;;1.55;;
16660;SDS011;8444;52.012;5.048;2023-07-13T11:57:19;4.82;;;2.08;;
16660;SDS011;8444;52.012;5.048;2023-07-13T11:59:40;4.53;;;1.45;;
16660;SDS011;8444;52.012;5.048;2023-07-13T12:02:14;2.78;;;1.65;;
16660;SDS011;8444;52.012;5.048;2023-07-13T12:04:41;4.40;;;1.83;;
16660;SDS011;8444;52.012;5.048;2023-07-13T12:07:11;2.25;;;1.80;;
16660;SDS011;8444;52.012;5.048;2023-07-13T12:09:39;3.97;;;1.58;;
16660;SDS011;8444;52.012;5.048;2023-07-13T12:12:08;4.00;;;1.45;;
16660;SDS011;8444;52.012;5.048;2023-07-13T12:14:35;3.22;;;1.70;;
16660;SDS011;8444;52.012;5.048;2023-07-13T12:17:00;3.70;;;1.60;;
16660;SDS011;8444;52.012;5.048;2023-07-13T12:19:26;4.28;;;1.75;;
16660;SDS011;8444;52.012;5.048;2023-07-13T12:21:56;2.95;;;1.65;;
16660;SDS011;8444;52.012;5.048;2023-07-13T12:24:22;2.30;;;1.40;;
16660;SDS011;8444;52.012;5.048;2023-07-13T12:26:52;3.85;;;1.95;;
16660;SDS011;8444;52.012;5.048;2023-07-13T12:29:17;4.30;;;1.50;;
16660;SDS011;8444;52.012;5.048;2023-07-13T12:31:44;3.00;;;1.50;;
16660;SDS011;8444;52.012;5.048;2023-07-13T12:34:14;2.22;;;1.30;;
16660;SDS011;8444;52.012;5.048;2023-07-13T12:36:41;3.38;;;1.70;;
16660;SDS011;8444;52.012;5.048;2023-07-13T12:39:14;1.48;;;1.27;;
16660;SDS011;8444;52.012;5.048;2023-07-13T12:41:40;1.95;;;1.38;;
16660;SDS011;8444;52.012;5.048;2023-07-13T12:44:12;1.98;;;1.30;;
16660;SDS011;8444;52.012;5.048;2023-07-13T12:46:38;1.98;;;1.52;;
16660;SDS011;8444;52.012;5.048;2023-07-13T12:49:05;3.22;;;1.45;;
16660;SDS011;8444;52.012;5.048;2023-07-13T12:51:32;3.13;;;1.58;;
16660;SDS011;8444;52.012;5.048;2023-07-13T12:53:59;2.97;;;1.40;;
16660;SDS011;8444;52.012;5.048;2023-07-13T12:56:30;1.92;;;1.10;;
16660;SDS011;8444;52.012;5.048;2023-07-13T12:59:01;2.30;;;1.23;;
16660;SDS011;8444;52.012;5.048;2023-07-13T13:01:27;2.83;;;1.60;;
16660;SDS011;8444;52.012;5.048;2023-07-13T13:03:53;1.90;;;1.50;;
16660;SDS011;8444;52.012;5.048;2023-07-13T13:08:49;3.10;;;1.45;;
16660;SDS011;8444;52.012;5.048;2023-07-13T13:11:15;1.95;;;1.15;;
16660;SDS011;8444;52.012;5.048;2023-07-13T13:13:41;3.80;;;2.08;;
16660;SDS011;8444;52.012;5.048;2023-07-13T13:18:38;1.25;;;0.90;;
16660;SDS011;8444;52.012;5.048;2023-07-13T13:21:03;4.15;;;1.48;;
16660;SDS011;8444;52.012;5.048;2023-07-13T13:23:28;2.60;;;1.30;;
16660;SDS011;8444;52.012;5.048;2023-07-13T13:25:53;2.30;;;1.38;;
16660;SDS011;8444;52.012;5.048;2023-07-13T13:28:20;2.45;;;1.40;;
16660;SDS011;8444;52.012;5.048;2023-07-13T13:30:46;5.45;;;1.75;;
16660;SDS011;8444;52.012;5.048;2023-07-13T13:33:13;3.70;;;1.60;;
16660;SDS011;8444;52.012;5.048;2023-07-13T13:35:39;2.80;;;2.40;;
16660;SDS011;8444;52.012;5.048;2023-07-13T13:38:14;3.88;;;2.70;;
16660;SDS011;8444;52.012;5.048;2023-07-13T13:40:41;2.22;;;1.58;;
16660;SDS011;8444;52.012;5.048;2023-07-13T13:45:41;3.22;;;1.33;;
16660;SDS011;8444;52.012;5.048;2023-07-13T13:48:07;2.53;;;1.30;;
16660;SDS011;8444;52.012;5.048;2023-07-13T13:50:38;2.28;;;1.38;;
16660;SDS011;8444;52.012;5.048;2023-07-13T13:53:03;2.90;;;1.10;;
16660;SDS011;8444;52.012;5.048;2023-07-13T13:55:29;3.00;;;1.27;;
16660;SDS011;8444;52.012;5.048;2023-07-13T13:57:54;2.05;;;1.25;;
16660;SDS011;8444;52.012;5.048;2023-07-13T14:00:19;3.20;;;1.52;;
16660;SDS011;8444;52.012;5.048;2023-07-13T14:02:47;1.92;;;1.17;;
16660;SDS011;8444;52.012;5.048;2023-07-13T14:05:17;1.92;;;1.10;;
16660;SDS011;8444;52.012;5.048;2023-07-13T14:07:44;3.25;;;1.30;;
16660;SDS011;8444;52.012;5.048;2023-07-13T14:10:14;2.13;;;1.10;;
16660;SDS011;8444;52.012;5.048;2023-07-13T14:12:41;2.38;;;1.08;;
16660;SDS011;8444;52.012;5.048;2023-07-13T14:15:09;4.20;;;1.45;;
16660;SDS011;8444;52.012;5.048;2023-07-13T14:17:39;2.65;;;1.30;;
16660;SDS011;8444;52.012;5.048;2023-07-13T14:20:05;1.77;;;1.05;;
16660;SDS011;8444;52.012;5.048;2023-07-13T14:22:34;2.70;;;1.30;;
16660;SDS011;8444;52.012;5.048;2023-07-13T14:25:00;3.53;;;1.73;;
16660;SDS011;8444;52.012;5.048;2023-07-13T14:27:25;3.40;;;1.10;;
16660;SDS011;8444;52.012;5.048;2023-07-13T14:29:50;1.80;;;1.02;;
16660;SDS011;8444;52.012;5.048;2023-07-13T14:32:16;2.28;;;1.27;;
16660;SDS011;8444;52.012;5.048;2023-07-13T14:34:41;2.97;;;1.42;;
16660;SDS011;8444;52.012;5.048;2023-07-13T14:37:11;4.93;;;1.42;;
16660;SDS011;8444;52.012;5.048;2023-07-13T14:39:37;1.50;;;1.17;;
16660;SDS011;8444;52.012;5.048;2023-07-13T14:42:03;3.20;;;1.33;;
16660;SDS011;8444;52.012;5.048;2023-07-13T14:44:29;2.45;;;1.00;;
16660;SDS011;8444;52.012;5.048;2023-07-13T14:46:55;1.33;;;1.17;;
16660;SDS011;8444;52.012;5.048;2023-07-13T14:49:28;2.67;;;0.90;;
16660;SDS011;8444;52.012;5.048;2023-07-13T14:51:54;3.03;;;0.82;;
16660;SDS011;8444;52.012;5.048;2023-07-13T14:54:22;2.67;;;1.10;;
16660;SDS011;8444;52.012;5.048;2023-07-13T14:56:48;1.85;;;1.02;;
16660;SDS011;8444;52.012;5.048;2023-07-13T14:59:13;1.90;;;0.80;;
16660;SDS011;8444;52.012;5.048;2023-07-13T15:01:39;3.35;;;1.35;;
16660;SDS011;8444;52.012;5.048;2023-07-13T15:04:04;2.05;;;1.10;;
16660;SDS011;8444;52.012;5.048;2023-07-13T15:06:30;3.22;;;1.05;;
16660;SDS011;8444;52.012;5.048;2023-07-13T15:08:56;1.42;;;1.15;;
16660;SDS011;8444;52.012;5.048;2023-07-13T15:11:21;2.70;;;0.98;;
16660;SDS011;8444;52.012;5.048;2023-07-13T15:13:47;3.53;;;1.10;;
16660;SDS011;8444;52.012;5.048;2023-07-13T15:16:23;2.08;;;1.10;;
16660;SDS011;8444;52.012;5.048;2023-07-13T15:18:49;2.42;;;1.20;;
16660;SDS011;8444;52.012;5.048;2023-07-13T15:21:24;3.65;;;1.17;;
16660;SDS011;8444;52.012;5.048;2023-07-13T15:23:50;2.65;;;1.02;;
16660;SDS011;8444;52.012;5.048;2023-07-13T15:26:16;2.58;;;1.02;;
16660;SDS011;8444;52.012;5.048;2023-07-13T15:28:42;1.50;;;0.85;;
16660;SDS011;8444;52.012;5.048;2023-07-13T15:31:24;3.13;;;1.17;;
16660;SDS011;8444;52.012;5.048;2023-07-13T15:33:50;3.75;;;1.42;;
16660;SDS011;8444;52.012;5.048;2023-07-13T15:36:16;4.82;;;1.20;;
16660;SDS011;8444;52.012;5.048;2023-07-13T15:38:42;2.33;;;0.95;;
16660;SDS011;8444;52.012;5.048;2023-07-13T15:41:23;2.78;;;0.98;;
16660;SDS011;8444;52.012;5.048;2023-07-13T15:43:49;1.50;;;0.95;;